Página principal
METAR-TAF:

METAR-TAF

Aeroportos :

Aeroporto de Auckland

Auckland, Nova Zelândia

latitude: 37-01S, longitude: 174-48E, altura: 7 m

Observação actual do tempo

O boletim foi feito há 14 minutos, às 01:00 UTC
Vento 9 kt de oes-noroeste, variando entre oeste e nor-noroeste
Temperatura 16°C
Humidade 68%
Pressão 1012 hPa
Visibilidade 10 km ou mais

METAR: NZAA 160100Z AUTO 30009KT 280V340 9999 FEW026/// 16/10 Q1012 NOSIG

Hora: 13:14 (01:14 UTC)

Previsão

O boletim foi feito há 2 horas e 13 minutos, às 23:01 UTC
Previsão válida de 16 às 00 UTC a 17 às 00 UTC
Vento 8 kt de nor-noroeste
Visibilidade 10 km ou mais
Nuvens dispersasa uma altura de 3000 ft
aguaceiros fracos de chuva

TAF: NZAA 152301Z 1600/1700 33008KT 9999 -SHRA SCT030

Observações e previsões do tempo de mais de 4000 aeroportos (mensagens METAR e TAF).

As estações disponíveis são os pontos amarelos e vermelhos sobre o mapa.

Mova o rato sobre o mapa para ver o nome da estação.

Depois clique no ponto para visualizar as observações e previsões meteorológicas.

Para alterar o mapa : clique nos botões verdes com uma cruz preta para aumentar o zoom; no botão verde com uma pitada de zoom; ou nas setas verdes para mapas adjacentes.


METAR-TAF: